Pagina principale
METAR-TAF:

METAR-TAF

Aeroporti :

Bari, Italia

Aeroporto di Bari-Palese

latitudine: 41-08N, longitudine: 016-47E, altezza: 34 m

Osservazione

Il bollettino è stato emesso 15 minuti fa, alle 12:50 UTC
Vento 11 kt da ovest/sud-ovest, variando fra sud/sud-ovest e ovest
Temperature 15°C
Umidità 55%
Pressione 1013 hPa
Visibilità 10 km o più
Nubi sparse ad un'altezza di 4500 ft

METAR: LIBD 161250Z 24011KT 210V270 9999 SCT045 15/06 Q1013

Ora: 14:05 (13:05 UTC)

Previsione

Il bollettino è stato emesso 2 ore e 5 minuti fa, alle 11:00 UTC
Previsione valida dal 16 alle 12 UTC al 17 alle 12 UTC
Vento 15 kt da sud-ovest
Visibilità 10 km o più
nessuna nube inferiore a 1500 m e nessun cumulonembo
Evoluzione graduale
dal 16 alle 12 UTC al 16 alle 14 UTC
Vento 18 kt da sud-ovest con raffiche fino a 28 kt

TAF: LIBD 161100Z 1612/1712 22015KT CAVOK BECMG 1612/1614 23018G28KT

Osservazioni e previsioni meteorologiche di più di 4000 aeroporti (messaggi METAR e TAF).

Le stazioni disponibili sono rappresentate dai dischi gialli e rossi sulla carta.

Puntare il mouse per vedere il nome della stazione.

Clicca sopra per visualizzare le osservazioni e previsioni meteorologiche.

Per cambiare la mappa : fare clic sui pulsanti verdi con una croce nera per ingrandire, il pulsante verde con un trattino per diminuire, o sulla freccia verde per le mappe adiacenti.


METAR-TAF: